Time;durP1;ratioP1;P1;durP2;ratioP2;P2;SDS_P1;SDS_P2;PMS_P1;PMS_P2;Temp;Humidity;BMP_temperature;BMP_pressure;BME280_temperature;BME280_humidity;BME280_pressure;Samples;Min_cycle;Max_cycle;Signal;HPM_P1;HPM_P2
2024/02/09 00:02:18;;;;;;;46.50;37.15;;;;;;;;;;5014122;28;20029;-61
2024/02/09 00:04:44;;;;;;;47.00;36.55;;;;;;;;;;5013913;28;20476;-61
2024/02/09 00:07:10;;;;;;;44.47;35.25;;;;;;;;;;5014291;28;20029;-61
2024/02/09 00:09:36;;;;;;;44.88;33.33;;;;;;;;;;5007906;28;20470;-61
2024/02/09 00:12:03;;;;;;;43.10;33.42;;;;;;;;;;5013873;28;20033;-61
2024/02/09 00:14:29;;;;;;;38.75;32.05;;;;;;;;;;5014335;28;20108;-61
2024/02/09 00:16:55;;;;;;;39.50;31.42;;;;;;;;;;5012537;28;20082;-62
2024/02/09 00:19:22;;;;;;;39.92;31.83;;;;;;;;;;5011500;28;20048;-61
2024/02/09 00:21:48;;;;;;;36.85;30.88;;;;;;;;;;5013936;28;20045;-61
2024/02/09 00:24:23;;;;;;;44.70;32.63;;;;;;;;;;5004935;28;20049;-62
2024/02/09 00:26:49;;;;;;;39.95;31.67;;;;;;;;;;5011241;28;20076;-61
2024/02/09 00:29:14;;;;;;;35.20;29.45;;;;;;;;;;5011664;28;20500;-62
2024/02/09 00:31:43;;;;;;;35.10;28.45;;;;;;;;;;5005529;28;20100;-61
2024/02/09 00:34:08;;;;;;;33.13;26.65;;;;;;;;;;5009580;28;20022;-61
2024/02/09 00:36:34;;;;;;;33.67;26.30;;;;;;;;;;5007479;28;20033;-62
2024/02/09 00:39:00;;;;;;;33.25;25.65;;;;;;;;;;5009700;28;20172;-61
2024/02/09 00:41:27;;;;;;;32.85;26.58;;;;;;;;;;5012173;28;20365;-62
2024/02/09 00:43:53;;;;;;;35.53;26.77;;;;;;;;;;5013737;28;20025;-62
2024/02/09 00:46:19;;;;;;;35.63;26.50;;;;;;;;;;5013594;28;20041;-62
2024/02/09 00:48:45;;;;;;;32.97;27.38;;;;;;;;;;5011206;28;20053;-61
2024/02/09 00:51:11;;;;;;;32.90;27.58;;;;;;;;;;5001177;28;20120;-62
2024/02/09 00:53:37;;;;;;;32.67;26.67;;;;;;;;;;5013702;28;20026;-62
2024/02/09 00:56:05;;;;;;;37.90;29.15;;;;;;;;;;5011982;28;20044;-62
2024/02/09 00:58:33;;;;;;;36.78;29.48;;;;;;;;;;5012822;28;20041;-62
2024/02/09 01:00:58;;;;;;;35.97;29.70;;;;;;;;;;5013407;28;20026;-62
2024/02/09 01:03:24;;;;;;;38.53;29.88;;;;;;;;;;5010798;28;20517;-62
2024/02/09 01:05:50;;;;;;;45.35;33.10;;;;;;;;;;5013020;28;20100;-62
2024/02/09 01:08:18;;;;;;;45.97;33.55;;;;;;;;;;5013284;28;20030;-62
2024/02/09 01:10:44;;;;;;;56.97;41.35;;;;;;;;;;5012570;28;20025;-62
2024/02/09 02:46:22;;;;;;;75.53;50.55;;;;;;;;;;5004735;28;20026;-62
2024/02/09 03:05:18;;;;;;;78.05;53.58;;;;;;;;;;5015313;28;20439;-62
2024/02/09 03:07:44;;;;;;;78.90;52.30;;;;;;;;;;5015498;28;20425;-62
2024/02/09 03:10:10;;;;;;;86.70;54.85;;;;;;;;;;5010683;28;20022;-62
2024/02/09 03:12:38;;;;;;;84.75;54.40;;;;;;;;;;5015220;28;20029;-62
2024/02/09 03:15:05;;;;;;;86.43;57.60;;;;;;;;;;5015202;28;20118;-62
2024/02/09 03:17:32;;;;;;;90.90;57.22;;;;;;;;;;5013883;28;20080;-62
2024/02/09 03:20:00;;;;;;;88.07;56.63;;;;;;;;;;5011473;28;20038;-62
2024/02/09 03:22:27;;;;;;;89.05;55.00;;;;;;;;;;5015342;28;20028;-63
2024/02/09 03:24:53;;;;;;;86.78;57.28;;;;;;;;;;5008098;28;20062;-62
2024/02/09 03:27:19;;;;;;;89.78;55.83;;;;;;;;;;5008650;28;20030;-62
2024/02/09 03:29:45;;;;;;;79.53;52.30;;;;;;;;;;5008491;28;20058;-62
2024/02/09 03:32:13;;;;;;;86.45;55.45;;;;;;;;;;5014104;28;20049;-62
2024/02/09 03:34:42;;;;;;;81.65;54.33;;;;;;;;;;5012492;28;20048;-62
2024/02/09 03:37:09;;;;;;;85.00;56.78;;;;;;;;;;5015110;28;20047;-62
2024/02/09 03:39:38;;;;;;;81.07;54.47;;;;;;;;;;5014690;28;20467;-63
2024/02/09 03:42:04;;;;;;;83.22;55.63;;;;;;;;;;5013764;28;20494;-62
2024/02/09 03:44:30;;;;;;;83.55;54.47;;;;;;;;;;5014056;28;20148;-63
2024/02/09 03:46:58;;;;;;;86.38;54.25;;;;;;;;;;5001983;28;20022;-63
2024/02/09 03:49:24;;;;;;;81.63;54.50;;;;;;;;;;5008856;28;20042;-62
2024/02/09 03:51:50;;;;;;;85.00;54.85;;;;;;;;;;5014673;28;20022;-61
2024/02/09 03:54:15;;;;;;;81.72;54.88;;;;;;;;;;5014328;28;20081;-61
2024/02/09 03:56:41;;;;;;;85.43;53.92;;;;;;;;;;5012875;28;20487;-62
2024/02/09 03:59:07;;;;;;;88.88;56.78;;;;;;;;;;5019156;28;20042;-61
2024/02/09 04:01:34;;;;;;;85.80;55.55;;;;;;;;;;5012405;28;20038;-62
2024/02/09 04:04:00;;;;;;;87.32;55.72;;;;;;;;;;5003832;28;20033;-62
2024/02/09 04:06:29;;;;;;;84.18;53.05;;;;;;;;;;5013473;28;20542;-62
2024/02/09 04:08:56;;;;;;;81.90;53.15;;;;;;;;;;4999645;28;20018;-62
2024/02/09 04:11:25;;;;;;;85.63;54.05;;;;;;;;;;5006312;28;20069;-62
2024/02/09 04:13:51;;;;;;;86.38;54.47;;;;;;;;;;5012199;28;20017;-62
2024/02/09 04:16:20;;;;;;;80.85;53.67;;;;;;;;;;5014035;28;20403;-62
2024/02/09 04:18:46;;;;;;;79.72;53.75;;;;;;;;;;5013935;28;20510;-62
2024/02/09 04:21:13;;;;;;;86.22;54.63;;;;;;;;;;5004378;28;20044;-63
2024/02/09 04:23:39;;;;;;;82.53;54.30;;;;;;;;;;5013777;28;20053;-62
2024/02/09 04:26:05;;;;;;;84.65;52.92;;;;;;;;;;5011039;28;20022;-62
2024/02/09 04:28:31;;;;;;;90.32;56.88;;;;;;;;;;5002162;28;20080;-62
2024/02/09 04:30:56;;;;;;;82.30;51.90;;;;;;;;;;5013334;28;20154;-62
2024/02/09 04:33:22;;;;;;;83.75;53.95;;;;;;;;;;5012846;28;20492;-63
2024/02/09 04:35:48;;;;;;;82.53;51.83;;;;;;;;;;5004676;28;20033;-63
2024/02/09 04:38:15;;;;;;;85.63;53.67;;;;;;;;;;5013861;28;20076;-63
2024/02/09 04:40:42;;;;;;;84.55;53.55;;;;;;;;;;5002577;28;20018;-62
2024/02/09 04:43:08;;;;;;;82.43;50.72;;;;;;;;;;5013015;28;20026;-63
2024/02/09 04:45:34;;;;;;;82.00;50.78;;;;;;;;;;5011764;28;20455;-62
2024/02/09 04:48:00;;;;;;;85.25;53.45;;;;;;;;;;5002269;28;20072;-62
2024/02/09 04:50:26;;;;;;;81.70;50.47;;;;;;;;;;5002216;28;20086;-62
2024/02/09 04:52:52;;;;;;;79.55;50.40;;;;;;;;;;5011318;28;20083;-62
2024/02/09 04:55:18;;;;;;;81.50;53.10;;;;;;;;;;5005309;28;20116;-62
2024/02/09 04:57:44;;;;;;;79.28;50.60;;;;;;;;;;5013549;28;20328;-62
2024/02/09 05:00:10;;;;;;;84.13;50.15;;;;;;;;;;5013559;28;20030;-61
2024/02/09 05:02:43;;;;;;;84.80;51.40;;;;;;;;;;5011718;28;20033;-62
2024/02/09 05:05:10;;;;;;;80.80;50.05;;;;;;;;;;5013053;28;20092;-62
2024/02/09 05:07:36;;;;;;;82.60;51.33;;;;;;;;;;5012744;28;20021;-62
2024/02/09 05:10:02;;;;;;;78.80;48.75;;;;;;;;;;5011702;28;20037;-62
2024/02/09 05:12:30;;;;;;;79.85;47.90;;;;;;;;;;5010941;28;20472;-62
2024/02/09 05:14:56;;;;;;;74.75;46.13;;;;;;;;;;5013197;28;20026;-62
2024/02/09 05:17:23;;;;;;;79.47;49.40;;;;;;;;;;5012324;28;20100;-62
2024/02/09 05:19:50;;;;;;;74.65;48.45;;;;;;;;;;5011517;28;20484;-62
2024/02/09 05:22:16;;;;;;;78.07;48.80;;;;;;;;;;5007021;28;20017;-62
2024/02/09 05:24:45;;;;;;;77.95;48.70;;;;;;;;;;5002613;28;20065;-62
2024/02/09 05:27:11;;;;;;;78.60;49.55;;;;;;;;;;5007860;28;20053;-62
2024/02/09 05:29:38;;;;;;;77.03;48.17;;;;;;;;;;5012840;28;20048;-61
2024/02/09 05:32:04;;;;;;;84.55;48.08;;;;;;;;;;5001736;28;20069;-62
2024/02/09 05:34:30;;;;;;;77.00;47.85;;;;;;;;;;5012755;28;20054;-62
2024/02/09 05:36:57;;;;;;;78.47;48.45;;;;;;;;;;5012881;28;20030;-62
2024/02/09 05:39:23;;;;;;;76.60;46.28;;;;;;;;;;5006630;28;20065;-61
2024/02/09 05:41:49;;;;;;;72.40;46.92;;;;;;;;;;5012651;28;20076;-61
2024/02/09 05:44:15;;;;;;;80.38;46.63;;;;;;;;;;5012420;28;20215;-61
2024/02/09 05:46:41;;;;;;;78.32;46.20;;;;;;;;;;5012469;28;20033;-61
2024/02/09 05:49:07;;;;;;;75.35;45.85;;;;;;;;;;5011008;28;20391;-62
2024/02/09 05:51:33;;;;;;;75.18;46.85;;;;;;;;;;5012575;28;20033;-62
2024/02/09 05:54:00;;;;;;;72.00;45.80;;;;;;;;;;5012127;28;20033;-61
2024/02/09 05:56:26;;;;;;;76.15;46.55;;;;;;;;;;5012200;28;20172;-62
2024/02/09 05:58:52;;;;;;;75.28;46.30;;;;;;;;;;5011337;28;20107;-62
2024/02/09 06:01:22;;;;;;;76.45;46.65;;;;;;;;;;5012190;28;20041;-62
2024/02/09 06:03:48;;;;;;;77.53;47.80;;;;;;;;;;4999256;28;20018;-62
2024/02/09 06:06:16;;;;;;;76.10;47.20;;;;;;;;;;5008455;28;20022;-61
2024/02/09 06:08:46;;;;;;;75.50;47.58;;;;;;;;;;5012373;28;20083;-62
2024/02/09 06:11:13;;;;;;;81.20;48.10;;;;;;;;;;5011837;28;20467;-61
2024/02/09 06:13:44;;;;;;;75.20;46.90;;;;;;;;;;5009259;28;20026;-62
2024/02/09 06:16:11;;;;;;;82.70;47.47;;;;;;;;;;5009911;28;20033;-62
2024/02/09 06:18:37;;;;;;;72.93;46.20;;;;;;;;;;5010587;28;20125;-62
2024/02/09 06:21:04;;;;;;;76.10;45.40;;;;;;;;;;5008676;28;20104;-62
2024/02/09 06:23:32;;;;;;;80.38;47.03;;;;;;;;;;5005306;28;20048;-62
2024/02/09 06:25:58;;;;;;;75.50;44.47;;;;;;;;;;5011067;28;20032;-62
2024/02/09 06:28:24;;;;;;;81.35;48.63;;;;;;;;;;5008272;28;20121;-62
2024/02/09 06:30:50;;;;;;;77.57;46.83;;;;;;;;;;5007833;28;20097;-62
2024/02/09 06:33:19;;;;;;;75.47;45.20;;;;;;;;;;5005054;28;20037;-61
2024/02/09 06:35:45;;;;;;;79.60;46.83;;;;;;;;;;5011383;28;20141;-61
2024/02/09 06:38:11;;;;;;;78.63;46.75;;;;;;;;;;5011481;28;20037;-61
2024/02/09 06:41:14;;;;;;;79.90;47.40;;;;;;;;;;5011303;28;20377;-61
2024/02/09 06:43:40;;;;;;;75.97;45.40;;;;;;;;;;5003198;28;20116;-61
2024/02/09 06:46:06;;;;;;;81.13;46.42;;;;;;;;;;5011363;28;20488;-61
2024/02/09 06:48:33;;;;;;;77.13;46.05;;;;;;;;;;5003632;28;20057;-61
2024/02/09 06:50:59;;;;;;;77.05;45.95;;;;;;;;;;5011520;28;20022;-61
2024/02/09 06:53:25;;;;;;;78.28;46.85;;;;;;;;;;5004729;28;20030;-61
2024/02/09 06:55:53;;;;;;;81.85;47.35;;;;;;;;;;5004282;28;20379;-61
2024/02/09 06:58:19;;;;;;;80.43;47.08;;;;;;;;;;5011332;28;20030;-62
2024/02/09 07:00:45;;;;;;;80.30;46.78;;;;;;;;;;5010852;28;20491;-61
2024/02/09 07:03:15;;;;;;;68.72;44.75;;;;;;;;;;5007961;28;20184;-62
2024/02/09 07:05:41;;;;;;;80.28;46.97;;;;;;;;;;5010852;28;20120;-61
2024/02/09 07:08:07;;;;;;;85.30;48.47;;;;;;;;;;5001247;28;20033;-61
2024/02/09 07:10:34;;;;;;;78.40;46.55;;;;;;;;;;5002689;28;20069;-61
2024/02/09 07:13:00;;;;;;;81.53;47.53;;;;;;;;;;5006664;28;20140;-61
2024/02/09 07:15:26;;;;;;;85.60;48.30;;;;;;;;;;5023891;28;20026;-61
2024/02/09 07:17:55;;;;;;;79.80;48.75;;;;;;;;;;5006908;28;20030;-61
2024/02/09 07:20:22;;;;;;;82.07;48.75;;;;;;;;;;5002098;28;20429;-62
2024/02/09 07:22:47;;;;;;;82.10;48.45;;;;;;;;;;5008726;28;20384;-62
2024/02/09 07:25:13;;;;;;;82.30;48.08;;;;;;;;;;5009835;28;20050;-62
2024/02/09 07:27:39;;;;;;;81.53;48.17;;;;;;;;;;5011246;28;20022;-62
2024/02/09 07:30:06;;;;;;;82.30;49.20;;;;;;;;;;5006190;28;20022;-62
2024/02/09 07:32:32;;;;;;;88.57;49.90;;;;;;;;;;5010836;28;20034;-61
2024/02/09 07:34:58;;;;;;;85.50;49.53;;;;;;;;;;5011178;28;20022;-61
2024/02/09 07:37:27;;;;;;;81.47;49.53;;;;;;;;;;5011420;28;20047;-63
2024/02/09 07:39:53;;;;;;;82.18;48.55;;;;;;;;;;5015685;28;20500;-63
2024/02/09 07:42:20;;;;;;;81.68;48.85;;;;;;;;;;5015216;28;20022;-63
2024/02/09 07:44:46;;;;;;;83.13;49.45;;;;;;;;;;5014978;28;20026;-63
2024/02/09 07:47:12;;;;;;;90.18;52.55;;;;;;;;;;5014931;28;20159;-63
2024/02/09 07:49:38;;;;;;;95.05;53.72;;;;;;;;;;5014971;28;20026;-63
2024/02/09 07:52:04;;;;;;;94.28;53.47;;;;;;;;;;5014795;28;20018;-63
2024/02/09 07:54:31;;;;;;;91.72;52.88;;;;;;;;;;5014676;28;20384;-63
2024/02/09 07:56:57;;;;;;;86.30;52.15;;;;;;;;;;5014931;28;20018;-63
2024/02/09 07:59:23;;;;;;;86.90;51.70;;;;;;;;;;5014377;28;20042;-63
2024/02/09 08:01:51;;;;;;;92.00;52.90;;;;;;;;;;5013085;28;20026;-63
2024/02/09 08:04:17;;;;;;;94.35;56.33;;;;;;;;;;5013020;28;20423;-63
2024/02/09 08:06:44;;;;;;;89.53;53.00;;;;;;;;;;5014462;28;20088;-63
2024/02/09 08:09:10;;;;;;;87.38;52.45;;;;;;;;;;5014302;28;20029;-63
2024/02/09 08:11:42;;;;;;;88.97;52.75;;;;;;;;;;5014343;28;20044;-64
2024/02/09 08:14:08;;;;;;;94.53;55.15;;;;;;;;;;5014554;28;20435;-63
2024/02/09 08:16:34;;;;;;;88.43;51.60;;;;;;;;;;5006312;28;20121;-66
2024/02/09 08:19:00;;;;;;;91.93;54.65;;;;;;;;;;5006586;28;20040;-56
2024/02/09 08:21:26;;;;;;;93.28;54.38;;;;;;;;;;5009572;28;20030;-58
2024/02/09 08:23:52;;;;;;;97.78;56.85;;;;;;;;;;5013520;28;20065;-55
2024/02/09 08:26:18;;;;;;;92.05;54.47;;;;;;;;;;5013827;28;20029;-58
2024/02/09 08:28:47;;;;;;;88.68;54.38;;;;;;;;;;5014146;28;20033;-62
2024/02/09 08:31:16;;;;;;;97.80;55.50;;;;;;;;;;5014070;28;20115;-59
2024/02/09 08:33:43;;;;;;;95.43;55.08;;;;;;;;;;5008814;28;20074;-59
2024/02/09 08:36:09;;;;;;;98.40;56.45;;;;;;;;;;5016032;28;20411;-58
2024/02/09 08:38:36;;;;;;;99.68;56.72;;;;;;;;;;5014880;28;20364;-58
2024/02/09 08:41:02;;;;;;;96.10;58.72;;;;;;;;;;5012871;28;20030;-60
2024/02/09 08:43:29;;;;;;;103.28;57.55;;;;;;;;;;5013929;28;20106;-59
2024/02/09 08:45:55;;;;;;;106.97;58.92;;;;;;;;;;5014018;28;20029;-60
2024/02/09 08:48:22;;;;;;;99.85;57.65;;;;;;;;;;5012629;28;20022;-60
2024/02/09 08:50:49;;;;;;;93.45;54.80;;;;;;;;;;5013709;28;20380;-61
2024/02/09 08:53:15;;;;;;;97.88;56.65;;;;;;;;;;5009501;28;20028;-61
2024/02/09 08:55:41;;;;;;;96.03;56.50;;;;;;;;;;5014032;28;20018;-66
2024/02/09 08:58:07;;;;;;;98.18;58.70;;;;;;;;;;5013825;28;20034;-66
2024/02/09 09:00:33;;;;;;;97.45;58.50;;;;;;;;;;5013926;28;20076;-60
2024/02/09 09:03:00;;;;;;;95.97;57.33;;;;;;;;;;5013287;28;20037;-59
2024/02/09 09:05:27;;;;;;;88.28;54.60;;;;;;;;;;5013088;28;20030;-60
2024/02/09 09:07:53;;;;;;;96.78;55.00;;;;;;;;;;5010967;28;20030;-57
2024/02/09 09:10:19;;;;;;;101.15;57.40;;;;;;;;;;5012635;28;20030;-60
2024/02/09 09:12:46;;;;;;;100.05;57.95;;;;;;;;;;5006369;28;20053;-59
2024/02/09 09:15:12;;;;;;;100.07;59.67;;;;;;;;;;5013204;28;20037;-61
2024/02/09 09:17:38;;;;;;;98.03;57.25;;;;;;;;;;5013228;28;20081;-64
2024/02/09 09:20:13;;;;;;;93.75;55.60;;;;;;;;;;5012800;28;20044;-60
2024/02/09 09:22:41;;;;;;;99.07;58.53;;;;;;;;;;5012414;28;20080;-52
2024/02/09 09:25:07;;;;;;;98.55;59.38;;;;;;;;;;5012839;28;20124;-51
2024/02/09 09:27:39;;;;;;;104.70;63.50;;;;;;;;;;5013423;28;20026;-54
2024/02/09 09:30:06;;;;;;;102.22;60.67;;;;;;;;;;5012624;28;20029;-59
2024/02/09 09:32:32;;;;;;;101.80;59.25;;;;;;;;;;5006978;28;20037;-57
2024/02/09 09:44:09;;;;;;;89.47;55.45;;;;;;;;;;4997690;28;20025;-62
2024/02/09 09:46:39;;;;;;;95.97;57.95;;;;;;;;;;5008155;28;20360;-60
2024/02/09 09:49:06;;;;;;;104.18;60.30;;;;;;;;;;5002967;28;20018;-54
2024/02/09 09:51:33;;;;;;;102.72;61.35;;;;;;;;;;5012431;28;20037;-58
2024/02/09 09:54:00;;;;;;;93.05;56.20;;;;;;;;;;5011113;28;20037;-50
2024/02/09 09:56:27;;;;;;;89.93;56.08;;;;;;;;;;5012661;28;20026;-50
2024/02/09 09:58:54;;;;;;;94.05;57.88;;;;;;;;;;5012147;28;20493;-50
2024/02/09 10:01:20;;;;;;;93.35;55.35;;;;;;;;;;5010161;28;20080;-53
2024/02/09 10:03:47;;;;;;;103.28;62.53;;;;;;;;;;5012491;28;20046;-61
2024/02/09 10:06:14;;;;;;;95.60;58.05;;;;;;;;;;5012732;28;20025;-58
2024/02/09 10:08:40;;;;;;;98.28;60.10;;;;;;;;;;5012077;28;20152;-49
2024/02/09 10:11:07;;;;;;;92.47;55.40;;;;;;;;;;5011518;28;20021;-52
2024/02/09 10:13:37;;;;;;;96.72;56.13;;;;;;;;;;5012555;28;20028;-61
2024/02/09 10:16:04;;;;;;;91.03;55.00;;;;;;;;;;5004624;28;20092;-63
2024/02/09 10:18:34;;;;;;;92.60;55.97;;;;;;;;;;5011781;28;20034;-66
2024/02/09 10:21:26;;;;;;;96.47;54.90;;;;;;;;;;5011002;28;20499;-64
2024/02/09 10:23:55;;;;;;;93.72;55.17;;;;;;;;;;5006468;28;20049;-65
2024/02/09 10:26:21;;;;;;;97.25;56.97;;;;;;;;;;5012005;28;20065;-66
2024/02/09 10:28:52;;;;;;;95.97;56.67;;;;;;;;;;5011580;28;20045;-69
2024/02/09 10:31:18;;;;;;;90.90;55.17;;;;;;;;;;5011959;28;20017;-70
2024/02/09 10:33:45;;;;;;;90.35;55.45;;;;;;;;;;5012310;28;20018;-62
2024/02/09 10:36:11;;;;;;;98.85;59.88;;;;;;;;;;5019989;28;20032;-61
2024/02/09 10:38:38;;;;;;;93.00;56.17;;;;;;;;;;5011169;28;20040;-67
2024/02/09 10:41:04;;;;;;;96.05;55.35;;;;;;;;;;5008273;28;20034;-71
2024/02/09 10:43:35;;;;;;;92.18;54.28;;;;;;;;;;5008773;28;20125;-70
2024/02/09 10:46:01;;;;;;;88.93;56.10;;;;;;;;;;5009874;28;20033;-78
2024/02/09 10:48:40;;;;;;;91.88;53.47;;;;;;;;;;5006626;28;20021;-66
2024/02/09 10:51:07;;;;;;;91.93;53.80;;;;;;;;;;5007368;28;20041;-71
2024/02/09 10:53:35;;;;;;;97.68;57.83;;;;;;;;;;4994014;28;20083;-67
2024/02/09 10:56:03;;;;;;;93.72;56.40;;;;;;;;;;5000188;28;20068;-65
2024/02/09 10:58:33;;;;;;;88.55;52.80;;;;;;;;;;5005524;28;20034;-61
2024/02/09 11:01:00;;;;;;;88.47;51.67;;;;;;;;;;5011071;28;20030;-66
2024/02/09 11:03:27;;;;;;;82.25;48.72;;;;;;;;;;5011270;28;20112;-62
2024/02/09 11:05:53;;;;;;;81.72;49.33;;;;;;;;;;5011208;28;20464;-66
2024/02/09 11:08:20;;;;;;;84.40;50.13;;;;;;;;;;5011453;28;20448;-65
2024/02/09 11:10:56;;;;;;;81.18;48.42;;;;;;;;;;5009920;28;20037;-74
2024/02/09 11:13:25;;;;;;;92.50;51.55;;;;;;;;;;5009088;28;20436;-57
2024/02/09 11:15:55;;;;;;;79.97;50.20;;;;;;;;;;5017021;28;20026;-57
2024/02/09 11:18:21;;;;;;;82.85;48.70;;;;;;;;;;5014359;28;20042;-47
2024/02/09 11:20:48;;;;;;;80.53;49.85;;;;;;;;;;5012193;28;20149;-47
2024/02/09 11:23:14;;;;;;;85.60;51.10;;;;;;;;;;5005250;28;20171;-60
2024/02/09 11:25:45;;;;;;;81.65;47.38;;;;;;;;;;5014117;28;20487;-62
2024/02/09 11:28:11;;;;;;;81.60;49.42;;;;;;;;;;5011430;28;20033;-58
2024/02/09 11:30:38;;;;;;;85.50;49.40;;;;;;;;;;5004023;28;20073;-60
2024/02/09 11:33:06;;;;;;;78.38;46.50;;;;;;;;;;5026699;28;20027;-57
2024/02/09 11:35:32;;;;;;;75.60;48.75;;;;;;;;;;5020950;28;20021;-61
2024/02/09 11:37:58;;;;;;;88.38;47.95;;;;;;;;;;5013180;28;20064;-59
2024/02/09 11:40:24;;;;;;;72.45;44.80;;;;;;;;;;5014281;28;20434;-59
2024/02/09 11:42:50;;;;;;;73.57;46.35;;;;;;;;;;5015327;28;20030;-60
2024/02/09 11:45:16;;;;;;;81.38;47.95;;;;;;;;;;5011308;28;20033;-60
2024/02/09 11:47:42;;;;;;;76.30;47.88;;;;;;;;;;5018841;28;20464;-60
2024/02/09 11:50:21;;;;;;;77.88;46.97;;;;;;;;;;5012080;28;20476;-62
2024/02/09 11:52:48;;;;;;;76.22;46.53;;;;;;;;;;5002888;28;20077;-60
2024/02/09 11:55:14;;;;;;;76.45;44.05;;;;;;;;;;5013850;28;20109;-60
2024/02/09 11:57:41;;;;;;;79.00;45.83;;;;;;;;;;5010563;28;20069;-61
2024/02/09 12:00:08;;;;;;;77.20;45.42;;;;;;;;;;5014217;28;20492;-53
2024/02/09 12:02:34;;;;;;;70.88;43.55;;;;;;;;;;5015436;28;20030;-54
2024/02/09 12:05:00;;;;;;;72.40;45.13;;;;;;;;;;5011915;28;20073;-57
2024/02/09 12:07:26;;;;;;;78.55;43.78;;;;;;;;;;5013921;28;20022;-57
2024/02/09 12:09:53;;;;;;;74.03;43.42;;;;;;;;;;5002469;28;20056;-61
2024/02/09 12:12:23;;;;;;;73.30;44.72;;;;;;;;;;5012569;28;20037;-63
2024/02/09 12:14:49;;;;;;;71.93;42.88;;;;;;;;;;5013964;28;20034;-64
2024/02/09 12:17:15;;;;;;;69.93;42.70;;;;;;;;;;5014484;28;20026;-55
2024/02/09 12:19:43;;;;;;;72.45;43.50;;;;;;;;;;5011304;28;20048;-52
2024/02/09 12:22:09;;;;;;;73.53;42.95;;;;;;;;;;5019870;28;20057;-50
2024/02/09 12:24:36;;;;;;;71.43;43.08;;;;;;;;;;5014461;28;20046;-55
2024/02/09 12:27:14;;;;;;;70.65;42.97;;;;;;;;;;5018378;28;20032;-54
2024/02/09 12:29:41;;;;;;;70.53;42.42;;;;;;;;;;5013735;28;20054;-55
2024/02/09 12:32:09;;;;;;;75.78;43.17;;;;;;;;;;5013728;28;20444;-56
2024/02/09 12:34:43;;;;;;;71.93;43.08;;;;;;;;;;5028747;28;20072;-57
2024/02/09 12:37:09;;;;;;;73.97;40.97;;;;;;;;;;5010934;28;20021;-58
2024/02/09 12:39:36;;;;;;;74.80;42.03;;;;;;;;;;4999107;28;20038;-57
2024/02/09 12:42:02;;;;;;;67.07;40.33;;;;;;;;;;5013267;28;20386;-59
2024/02/09 12:44:29;;;;;;;68.50;41.42;;;;;;;;;;5001769;28;20040;-58
2024/02/09 12:46:55;;;;;;;58.38;37.58;;;;;;;;;;5009539;28;20024;-58
2024/02/09 12:49:22;;;;;;;70.40;40.20;;;;;;;;;;5007651;28;20408;-59
2024/02/09 12:51:51;;;;;;;66.68;40.95;;;;;;;;;;5012883;28;20435;-58
2024/02/09 12:54:17;;;;;;;64.40;40.25;;;;;;;;;;5011219;28;20506;-59
2024/02/09 12:56:43;;;;;;;62.53;38.92;;;;;;;;;;5016991;28;20025;-58
2024/02/09 12:59:09;;;;;;;63.67;40.15;;;;;;;;;;5013425;28;20030;-57
2024/02/09 13:01:36;;;;;;;64.05;41.05;;;;;;;;;;5009863;28;20080;-58
2024/02/09 13:04:02;;;;;;;70.88;39.42;;;;;;;;;;5006393;28;20036;-56
2024/02/09 13:06:28;;;;;;;68.32;40.33;;;;;;;;;;4997407;28;20035;-58
2024/02/09 13:08:56;;;;;;;69.88;41.15;;;;;;;;;;5012639;28;20068;-57
2024/02/09 13:11:23;;;;;;;64.95;37.47;;;;;;;;;;5014734;28;20144;-58
2024/02/09 13:13:49;;;;;;;65.28;40.42;;;;;;;;;;5010593;28;20071;-56
2024/02/09 13:16:17;;;;;;;65.60;37.92;;;;;;;;;;5010280;28;20065;-58
2024/02/09 13:18:43;;;;;;;57.55;35.08;;;;;;;;;;5014598;28;20087;-56
2024/02/09 13:21:09;;;;;;;63.58;36.03;;;;;;;;;;5008932;28;20030;-64
2024/02/09 13:23:35;;;;;;;75.30;40.05;;;;;;;;;;5010560;28;20048;-66
2024/02/09 13:26:02;;;;;;;59.92;36.55;;;;;;;;;;5010666;28;20545;-64
2024/02/09 13:28:29;;;;;;;54.08;35.28;;;;;;;;;;4995296;28;20507;-62
2024/02/09 13:30:55;;;;;;;60.08;37.45;;;;;;;;;;4996408;28;20145;-62
2024/02/09 13:33:21;;;;;;;63.55;38.28;;;;;;;;;;5007445;28;20026;-63
2024/02/09 13:35:47;;;;;;;59.45;35.58;;;;;;;;;;5008142;28;20026;-63
2024/02/09 13:38:14;;;;;;;52.13;35.13;;;;;;;;;;5011159;28;20033;-64
2024/02/09 13:40:39;;;;;;;64.82;38.20;;;;;;;;;;5010303;28;20476;-61
2024/02/09 13:43:06;;;;;;;60.88;35.97;;;;;;;;;;5012637;28;20022;-60
2024/02/09 13:45:32;;;;;;;54.72;35.50;;;;;;;;;;5011835;28;20037;-64
2024/02/09 13:47:59;;;;;;;60.78;35.45;;;;;;;;;;5009941;28;20026;-54
2024/02/09 13:50:25;;;;;;;56.50;33.83;;;;;;;;;;5010749;28;20088;-55
2024/02/09 13:52:56;;;;;;;54.25;35.00;;;;;;;;;;5005105;28;20037;-58
2024/02/09 13:55:22;;;;;;;55.42;32.65;;;;;;;;;;4998580;28;20022;-60
2024/02/09 13:57:51;;;;;;;56.38;32.55;;;;;;;;;;5001490;28;20031;-66
2024/02/09 14:00:18;;;;;;;55.33;32.03;;;;;;;;;;5008011;28;20041;-74
2024/02/09 14:02:44;;;;;;;56.22;31.83;;;;;;;;;;5003423;28;20021;-62
2024/02/09 14:05:10;;;;;;;56.10;31.30;;;;;;;;;;5000935;28;20122;-63
2024/02/09 14:07:40;;;;;;;47.97;31.08;;;;;;;;;;5007955;28;20120;-73
2024/02/09 14:10:07;;;;;;;53.35;30.88;;;;;;;;;;5002447;28;20161;-60
2024/02/09 14:12:33;;;;;;;49.53;30.30;;;;;;;;;;5008871;28;20030;-63
2024/02/09 14:15:01;;;;;;;54.55;29.77;;;;;;;;;;5004374;28;20111;-61
2024/02/09 14:17:27;;;;;;;47.42;27.85;;;;;;;;;;5003858;28;20061;-58
2024/02/09 14:19:53;;;;;;;47.17;27.83;;;;;;;;;;5005808;28;20033;-61
2024/02/09 14:22:19;;;;;;;47.58;28.25;;;;;;;;;;5008036;28;20065;-58
2024/02/09 14:24:46;;;;;;;45.08;26.90;;;;;;;;;;4999739;28;20551;-53
2024/02/09 14:27:13;;;;;;;40.47;24.98;;;;;;;;;;5006888;28;20436;-66
2024/02/09 14:29:39;;;;;;;43.67;24.77;;;;;;;;;;5018901;28;20170;-60
2024/02/09 14:32:06;;;;;;;44.65;27.02;;;;;;;;;;5009065;28;20030;-59
2024/02/09 14:34:32;;;;;;;41.85;25.13;;;;;;;;;;4997525;28;20072;-57
2024/02/09 14:36:58;;;;;;;40.80;24.35;;;;;;;;;;5010506;28;20054;-60
2024/02/09 14:39:24;;;;;;;38.72;24.83;;;;;;;;;;5012135;28;20040;-59
2024/02/09 14:41:50;;;;;;;37.85;25.15;;;;;;;;;;5012061;28;20467;-53
2024/02/09 14:44:16;;;;;;;33.33;24.40;;;;;;;;;;5011523;28;20038;-53
2024/02/09 14:46:43;;;;;;;42.47;23.75;;;;;;;;;;5012865;28;20030;-54
2024/02/09 14:49:10;;;;;;;40.97;24.02;;;;;;;;;;5014541;28;20069;-54
2024/02/09 14:51:42;;;;;;;36.65;24.23;;;;;;;;;;5016150;28;20053;-58
2024/02/09 14:54:10;;;;;;;42.08;24.05;;;;;;;;;;5014206;28;20495;-57
2024/02/09 14:56:36;;;;;;;34.05;21.83;;;;;;;;;;5010548;28;20026;-57
2024/02/09 14:59:03;;;;;;;28.67;20.00;;;;;;;;;;5016235;28;20125;-59
2024/02/09 15:01:30;;;;;;;36.05;22.90;;;;;;;;;;5017017;28;20029;-60
2024/02/09 15:03:56;;;;;;;32.90;19.75;;;;;;;;;;5015091;28;20068;-60
2024/02/09 15:06:23;;;;;;;27.60;18.75;;;;;;;;;;5015587;28;20054;-62
2024/02/09 15:08:50;;;;;;;29.27;20.02;;;;;;;;;;5015186;28;20033;-61
2024/02/09 15:11:23;;;;;;;36.33;19.77;;;;;;;;;;5015913;28;20050;-62
2024/02/09 15:13:49;;;;;;;30.55;19.17;;;;;;;;;;5015736;28;20084;-56
2024/02/09 15:16:15;;;;;;;25.63;18.02;;;;;;;;;;5015530;28;20034;-57
2024/02/09 15:18:41;;;;;;;26.15;18.15;;;;;;;;;;5006562;28;20042;-56
2024/02/09 15:21:07;;;;;;;24.00;15.82;;;;;;;;;;5012227;28;20080;-67
2024/02/09 15:23:35;;;;;;;22.50;15.23;;;;;;;;;;5009437;28;20060;-59
2024/02/09 15:26:03;;;;;;;22.92;14.80;;;;;;;;;;5006384;28;20037;-57
2024/02/09 15:28:29;;;;;;;23.65;13.68;;;;;;;;;;5010544;28;20085;-63
2024/02/09 15:30:55;;;;;;;21.75;13.75;;;;;;;;;;5010525;28;20121;-62
2024/02/09 15:33:27;;;;;;;19.38;13.35;;;;;;;;;;5010196;28;20115;-60
2024/02/09 15:35:57;;;;;;;20.35;13.45;;;;;;;;;;5009856;28;20038;-64
2024/02/09 15:38:23;;;;;;;21.45;14.10;;;;;;;;;;5017121;28;20033;-67
2024/02/09 15:40:49;;;;;;;25.13;13.40;;;;;;;;;;5013529;28;20479;-70
2024/02/09 15:43:16;;;;;;;19.85;13.25;;;;;;;;;;5024815;28;20383;-55
2024/02/09 15:45:44;;;;;;;18.05;12.63;;;;;;;;;;5009830;28;20034;-62
2024/02/09 15:48:10;;;;;;;22.48;13.18;;;;;;;;;;5012143;28;20145;-59
2024/02/09 15:50:36;;;;;;;21.65;14.70;;;;;;;;;;5010134;28;20054;-60
2024/02/09 15:53:08;;;;;;;20.10;13.30;;;;;;;;;;5006908;28;20019;-65
2024/02/09 15:55:35;;;;;;;24.20;14.50;;;;;;;;;;5011656;28;20109;-63
2024/02/09 15:58:01;;;;;;;24.17;14.00;;;;;;;;;;5005199;28;20077;-63
2024/02/09 16:00:27;;;;;;;20.73;13.88;;;;;;;;;;5018701;28;20042;-62
2024/02/09 16:02:57;;;;;;;21.45;13.20;;;;;;;;;;5003683;28;20456;-62
2024/02/09 16:05:24;;;;;;;21.63;14.60;;;;;;;;;;5012004;28;20468;-66
2024/02/09 16:07:50;;;;;;;21.60;15.30;;;;;;;;;;5006567;28;20014;-70
2024/02/09 16:10:17;;;;;;;20.00;14.23;;;;;;;;;;5009423;28;20392;-61
2024/02/09 16:12:48;;;;;;;18.75;13.52;;;;;;;;;;5014551;28;20503;-62
2024/02/09 16:15:18;;;;;;;21.45;14.50;;;;;;;;;;5010391;28;20033;-59